Погода Олемана неделю

Архангельская область, Россия

19 - 25 июля
  • 19июля
    Сегодня
    +10°
    +21°
    Ясно и безоблачно
    ВремяПогодаТемператураВлажностьДавлениеВетер, м/сВероятность осадков
    00:00Ясно и безоблачно+17°C98 %757 мм2.9 м/с6 %
    03:00Небольшая облачность+14°C98 %757 мм2.7 м/с3 %
    06:00Облачно с прояснениями+13°C92 %757 мм2.9 м/с2 %
    09:00Пасмурно, сплошная облачность+17°C81 %757 мм3.3 м/с8 %
    12:00Ясно и безоблачно+19°C65 %757 мм3.2 м/с10 %
    15:00Ясно и безоблачно+20°C55 %756 мм3.4 м/с6 %
    18:00Ясно и безоблачно+19°C56 %756 мм3.8 м/с3 %
    21:00Ясно и безоблачно+17°C72 %757 мм2.7 м/с2 %
  • 20июля
    Суббота
    +10°
    +20°
    Ясно и безоблачно
    ВремяПогодаТемператураВлажностьДавлениеВетер, м/сВероятность осадков
    00:00Ясно и безоблачно+13°C83 %757 мм2.8 м/с2 %
    03:00Ясно и безоблачно+11°C85 %758 мм2.7 м/с2 %
    06:00Ясно и безоблачно+11°C78 %759 мм2.8 м/с2 %
    09:00Ясно и безоблачно+15°C58 %758 мм3.5 м/с2 %
    12:00Ясно и безоблачно+18°C46 %758 мм3.4 м/с2 %
    15:00Ясно и безоблачно+20°C43 %758 мм3.4 м/с2 %
    18:00Ясно и безоблачно+19°C48 %758 мм3.6 м/с2 %
    21:00Ясно и безоблачно+16°C66 %759 мм2.5 м/с2 %
  • 21июля
    Воскресенье
    +12°
    +22°
    Ясно и безоблачно
    ВремяПогодаТемператураВлажностьДавлениеВетер, м/сВероятность осадков
    00:00Ясно и безоблачно+13°C78 %760 мм2.1 м/с2 %
    03:00Ясно и безоблачно+10°C88 %761 мм2.1 м/с2 %
    06:00Ясно и безоблачно+12°C79 %761 мм1.9 м/с2 %
    09:00Ясно и безоблачно+17°C59 %761 мм2.8 м/с2 %
    12:00Ясно и безоблачно+20°C46 %761 мм3.0 м/с2 %
    15:00Ясно и безоблачно+21°C44 %760 мм2.6 м/с2 %
    18:00Ясно и безоблачно+21°C51 %760 мм2.7 м/с2 %
    21:00Ясно и безоблачно+19°C71 %760 мм1.9 м/с2 %
  • 22июля
    Понедельник
    +13°
    +24°
    Ясно и безоблачно
    ВремяПогодаТемператураВлажностьДавлениеВетер, м/сВероятность осадков
    00:00Небольшая облачность+15°C82 %761 мм1.4 м/с2 %
    03:00Облачно с прояснениями+12°C91 %761 мм1.2 м/с2 %
    06:00Практически безоблачно+14°C81 %761 мм0.6 м/с2 %
    09:00Ясно и безоблачно+19°C53 %761 мм1.4 м/с2 %
    12:00Ясно и безоблачно+22°C42 %761 мм1.8 м/с2 %
    15:00Ясно и безоблачно+23°C39 %760 мм2.1 м/с2 %
    18:00Ясно и безоблачно+23°C51 %760 мм2.2 м/с4 %
    21:00Ясно и безоблачно+20°C73 %760 мм2.0 м/с2 %
  • 23июля
    Вторник
    +11°
    +22°
    Небольшая облачность
    ВремяПогодаТемператураВлажностьДавлениеВетер, м/сВероятность осадков
    00:00Ясно и безоблачно+16°C86 %761 мм1.8 м/с2 %
    03:00Ясно и безоблачно+14°C87 %761 мм1.8 м/с2 %
    06:00Ясно и безоблачно+14°C79 %761 мм1.9 м/с2 %
    09:00Ясно и безоблачно+18°C66 %761 мм3.2 м/с2 %
    12:00Ясно и безоблачно+20°C56 %760 мм3.6 м/с7 %
    15:00Небольшая облачность+22°C48 %760 мм4.0 м/с6 %
    18:00Ясно и безоблачно+22°C54 %760 мм3.5 м/с4 %
    21:00Ясно и безоблачно+18°C69 %760 мм2.4 м/с3 %
Мы используем cookies
Соглашаюсь